createdAt,value
2023-02-12T00:00:54.015Z,9.278267
2023-02-12T00:01:54.071Z,9.278310
2023-02-12T00:02:54.071Z,9.278290
2023-02-12T00:03:54.052Z,9.278252
2023-02-12T00:04:53.989Z,9.278232
2023-02-12T00:05:54.295Z,9.278249
2023-02-12T00:06:53.910Z,9.278424
2023-02-12T00:07:53.897Z,9.278397
2023-02-12T00:08:53.885Z,9.278242
2023-02-12T00:09:53.886Z,9.278217
2023-02-12T00:10:53.832Z,9.278279
2023-02-12T00:11:53.814Z,9.278336
2023-02-12T00:12:53.799Z,9.278345
2023-02-12T00:13:53.780Z,9.278319
2023-02-12T00:14:53.788Z,9.278366
2023-02-12T00:15:54.205Z,9.278335
2023-02-12T00:16:53.721Z,9.278352
2023-02-12T00:17:53.705Z,9.278212
2023-02-12T00:18:53.689Z,9.278253
2023-02-12T00:19:53.705Z,9.278273
2023-02-12T00:20:53.661Z,9.278245
2023-02-12T00:21:53.654Z,9.278247
2023-02-12T00:22:53.626Z,9.278246
2023-02-12T00:23:53.631Z,9.278198
2023-02-12T00:24:53.624Z,9.278249
2023-02-12T00:25:53.932Z,9.278305
2023-02-12T00:26:53.566Z,9.278283
2023-02-12T00:27:53.547Z,9.278312
2023-02-12T00:28:53.525Z,9.278133
2023-02-12T00:29:53.535Z,9.278299
2023-02-12T00:30:53.581Z,9.278408
2023-02-12T00:31:53.471Z,9.278289
2023-02-12T00:32:53.459Z,9.278316
2023-02-12T00:33:53.437Z,9.278269
2023-02-12T00:34:53.449Z,9.278304
2023-02-12T00:35:54.785Z,9.278465
2023-02-12T00:36:53.390Z,9.278389
2023-02-12T00:37:53.365Z,9.278349
2023-02-12T00:38:53.382Z,9.278285
2023-02-12T00:39:53.366Z,9.278296
2023-02-12T00:40:53.324Z,9.278183
2023-02-12T00:41:53.299Z,9.278169
2023-02-12T00:42:53.324Z,9.278352
2023-02-12T00:43:53.262Z,9.278372
2023-02-12T00:44:53.278Z,9.278028
2023-02-12T00:45:53.517Z,9.278347
2023-02-12T00:46:53.218Z,9.278481
2023-02-12T00:47:53.270Z,9.278196
2023-02-12T00:48:53.181Z,9.278346
2023-02-12T00:49:53.190Z,9.278008
2023-02-12T00:50:53.140Z,9.277902
2023-02-12T00:51:53.138Z,9.278138
2023-02-12T00:52:53.128Z,9.278252
2023-02-12T00:53:53.101Z,9.278335
2023-02-12T00:54:53.114Z,9.278287
2023-02-12T00:55:53.612Z,9.278359
2023-02-12T00:56:53.079Z,9.278454
2023-02-12T00:57:53.026Z,9.278450
2023-02-12T00:58:52.998Z,9.278343
2023-02-12T00:59:53.004Z,9.278223
2023-02-12T01:00:52.962Z,9.278430
2023-02-12T01:01:53.031Z,9.278538
2023-02-12T01:02:52.929Z,9.278569
2023-02-12T01:03:52.920Z,9.278579
2023-02-12T01:04:52.963Z,9.278392
2023-02-12T01:05:54.403Z,9.278555
2023-02-12T01:06:52.859Z,9.278784
2023-02-12T01:07:52.852Z,9.278644
2023-02-12T01:08:52.832Z,9.278712
2023-02-12T01:09:52.838Z,9.278631
2023-02-12T01:10:52.793Z,9.278625
2023-02-12T01:11:52.779Z,9.278480
2023-02-12T01:12:52.752Z,9.278399
2023-02-12T01:13:52.748Z,9.278363
2023-02-12T01:14:52.765Z,9.278358
2023-02-12T01:15:53.003Z,9.278344
2023-02-12T01:16:52.700Z,9.278230
2023-02-12T01:17:52.677Z,9.278382
2023-02-12T01:18:55.485Z,9.278414
2023-02-12T01:19:53.723Z,9.278352
2023-02-12T01:20:52.625Z,9.278358
2023-02-12T01:21:52.596Z,9.278402
2023-02-12T01:22:52.595Z,9.278476
2023-02-12T01:23:52.575Z,9.278292
2023-02-12T01:24:52.579Z,9.278279
2023-02-12T01:25:52.811Z,9.278324
2023-02-12T01:26:52.513Z,9.278258
2023-02-12T01:27:52.502Z,9.277980
2023-02-12T01:28:52.485Z,9.278118
2023-02-12T01:29:52.496Z,9.278182
2023-02-12T01:30:52.561Z,9.278020
2023-02-12T01:31:52.490Z,9.278156
2023-02-12T01:32:52.415Z,9.278224
2023-02-12T01:33:52.412Z,9.278225
2023-02-12T01:34:52.419Z,9.278080
2023-02-12T01:35:52.567Z,9.278095
2023-02-12T01:36:52.358Z,9.278161
2023-02-12T01:37:52.337Z,9.278566
2023-02-12T01:38:52.342Z,9.278503
2023-02-12T01:39:52.321Z,9.278287
2023-02-12T01:40:52.339Z,9.278455
2023-02-12T01:41:52.286Z,9.278355
2023-02-12T01:42:52.257Z,9.278527
2023-02-12T01:43:52.231Z,9.278374
2023-02-12T01:44:52.240Z,9.278345
2023-02-12T01:45:52.239Z,9.278392
2023-02-12T01:46:52.340Z,9.278264
2023-02-12T01:47:52.167Z,9.278187
2023-02-12T01:48:52.169Z,9.278384
2023-02-12T01:49:52.166Z,9.278324
2023-02-12T01:50:52.128Z,9.278205
2023-02-12T01:51:52.104Z,9.278196
2023-02-12T01:52:52.082Z,9.278302
2023-02-12T01:53:52.057Z,9.278251
2023-02-12T01:54:52.071Z,9.278377
2023-02-12T01:55:52.085Z,9.278029
2023-02-12T01:56:52.013Z,9.278142
2023-02-12T01:57:51.995Z,9.278207
2023-02-12T01:58:51.967Z,9.278131
2023-02-12T01:59:51.979Z,9.278071
2023-02-12T02:00:52.010Z,9.278308
2023-02-12T02:01:51.970Z,9.278276
2023-02-12T02:02:51.926Z,9.278106
2023-02-12T02:03:51.897Z,9.278113
2023-02-12T02:04:51.903Z,9.278126
2023-02-12T02:05:51.859Z,9.278259
2023-02-12T02:06:51.831Z,9.278174
2023-02-12T02:07:51.827Z,9.278193
2023-02-12T02:08:51.799Z,9.278318
2023-02-12T02:09:51.819Z,9.278369
2023-02-12T02:10:51.766Z,9.278133
2023-02-12T02:11:51.751Z,9.278255
2023-02-12T02:12:51.726Z,9.278069
2023-02-12T02:13:51.718Z,9.278691
2023-02-12T02:14:51.718Z,9.278399
2023-02-12T02:15:51.718Z,9.278294
2023-02-12T02:16:51.663Z,9.278403
2023-02-12T02:17:51.640Z,9.278317
2023-02-12T02:18:51.638Z,9.278383
2023-02-12T02:19:51.643Z,9.278356
2023-02-12T02:20:51.634Z,9.278395
2023-02-12T02:22:23.962Z,9.278333
2023-02-12T02:22:51.571Z,9.278354
2023-02-12T02:23:52.558Z,9.278415
2023-02-12T02:24:51.565Z,9.278394
2023-02-12T02:25:51.511Z,9.278483
2023-02-12T02:26:51.488Z,9.278374
2023-02-12T02:27:52.485Z,9.278265
2023-02-12T02:28:51.469Z,9.278180
2023-02-12T02:29:51.473Z,9.278243
2023-02-12T02:30:51.474Z,9.278232
2023-02-12T02:31:51.463Z,9.278409
2023-02-12T02:32:51.436Z,9.278404
2023-02-12T02:33:51.383Z,9.278419
2023-02-12T02:34:51.593Z,9.278242
2023-02-12T02:35:51.343Z,9.278458
2023-02-12T02:37:00.592Z,9.278509
2023-02-12T02:37:53.294Z,9.278290
2023-02-12T02:38:51.279Z,9.278267
2023-02-12T02:39:51.338Z,9.278374
2023-02-12T02:40:51.252Z,9.278418
2023-02-12T02:41:51.244Z,9.278534
2023-02-12T02:42:51.222Z,9.278493
2023-02-12T02:43:51.213Z,9.278422
2023-02-12T02:44:51.237Z,9.278357
2023-02-12T02:45:51.225Z,9.278326
2023-02-12T02:46:51.248Z,9.278326
2023-02-12T02:47:51.178Z,9.278341
2023-02-12T02:48:51.128Z,9.278426
2023-02-12T02:49:51.119Z,9.278325
2023-02-12T02:50:51.108Z,9.278298
2023-02-12T02:51:51.044Z,9.278090
2023-02-12T02:52:52.057Z,9.278215
2023-02-12T02:53:51.022Z,9.278037
2023-02-12T02:54:50.999Z,9.278517
2023-02-12T02:55:51.104Z,9.278578
2023-02-12T02:56:50.970Z,9.278252
2023-02-12T02:57:50.967Z,9.278407
2023-02-12T02:58:50.949Z,9.278399
2023-02-12T02:59:50.930Z,9.278198
2023-02-12T03:00:50.942Z,9.278131
2023-02-12T03:01:50.895Z,9.278140
2023-02-12T03:02:50.887Z,9.278264
2023-02-12T03:03:50.849Z,9.278260
2023-02-12T03:04:50.864Z,9.278199
2023-02-12T03:05:50.844Z,9.278034
2023-02-12T03:06:50.826Z,9.278251
2023-02-12T03:07:50.806Z,9.278179
2023-02-12T03:08:50.798Z,9.278354
2023-02-12T03:09:50.747Z,9.278405
2023-02-12T03:10:50.791Z,9.278194
2023-02-12T03:11:50.809Z,9.278061
2023-02-12T03:12:50.772Z,9.277870
2023-02-12T03:13:50.672Z,9.278305
2023-02-12T03:14:50.647Z,9.278475
2023-02-12T03:15:50.662Z,9.278293
2023-02-12T03:16:50.615Z,9.278480
2023-02-12T03:17:50.611Z,9.278313
2023-02-12T03:18:50.597Z,9.278268
2023-02-12T03:19:50.572Z,9.278181
2023-02-12T03:20:50.583Z,9.278321
2023-02-12T03:21:50.523Z,9.278076
2023-02-12T03:22:50.526Z,9.278039
2023-02-12T03:23:50.497Z,9.278089
2023-02-12T03:24:50.497Z,9.278359
2023-02-12T03:25:50.500Z,9.278400
2023-02-12T03:26:50.461Z,9.278346
2023-02-12T03:27:50.464Z,9.278299
2023-02-12T03:28:50.426Z,9.277652
2023-02-12T03:29:50.477Z,9.277675
2023-02-12T03:30:50.420Z,9.278198
2023-02-12T03:31:50.394Z,9.278564
2023-02-12T03:32:50.344Z,9.278356
2023-02-12T03:33:50.331Z,9.278425
2023-02-12T03:34:50.314Z,9.278363
2023-02-12T03:35:50.329Z,9.278494
2023-02-12T03:36:50.304Z,9.278337
2023-02-12T03:37:50.276Z,9.278275
2023-02-12T03:38:50.343Z,9.278232
2023-02-12T03:39:50.238Z,9.278240
2023-02-12T03:40:50.249Z,9.278252
2023-02-12T03:41:50.203Z,9.278301
2023-02-12T03:42:50.167Z,9.278240
2023-02-12T03:43:50.149Z,9.278333
2023-02-12T03:44:50.153Z,9.278244
2023-02-12T03:45:50.231Z,9.278216
2023-02-12T03:46:50.189Z,9.278064
2023-02-12T03:47:50.273Z,9.278346
2023-02-12T03:48:50.190Z,9.278319
2023-02-12T03:49:50.066Z,9.278049
2023-02-12T03:50:50.071Z,9.278228
2023-02-12T03:51:50.111Z,9.278084
2023-02-12T03:52:50.137Z,9.278257
2023-02-12T03:53:49.986Z,9.278331
2023-02-12T03:54:49.948Z,9.278238
2023-02-12T03:55:50.989Z,9.278316
2023-02-12T03:56:49.928Z,9.278336
2023-02-12T03:57:49.916Z,9.278242
2023-02-12T03:58:49.946Z,9.278305
2023-02-12T03:59:49.870Z,9.278220
2023-02-12T04:00:49.903Z,9.278180
2023-02-12T04:01:49.991Z,9.278263
2023-02-12T04:02:49.879Z,9.278375
2023-02-12T04:03:49.913Z,9.278308
2023-02-12T04:04:49.893Z,9.278288
2023-02-12T04:05:49.818Z,9.278201
2023-02-12T04:06:49.810Z,9.278212
2023-02-12T04:07:49.730Z,9.278169
2023-02-12T04:08:49.729Z,9.278283
2023-02-12T04:09:49.716Z,9.278257
2023-02-12T04:10:49.730Z,9.278332
2023-02-12T04:11:49.666Z,9.278316
2023-02-12T04:12:49.651Z,9.278295
2023-02-12T04:13:49.653Z,9.278328
2023-02-12T04:14:49.631Z,9.278406
2023-02-12T04:15:49.628Z,9.278353
2023-02-12T04:16:49.634Z,9.278376
2023-02-12T04:17:49.572Z,9.278308
2023-02-12T04:18:49.541Z,9.278257
2023-02-12T04:19:49.565Z,9.278366
2023-02-12T04:20:49.560Z,9.278390
2023-02-12T04:21:49.496Z,9.278288
2023-02-12T04:22:49.481Z,9.278328
2023-02-12T04:23:49.459Z,9.278316
2023-02-12T04:24:49.434Z,9.278222
2023-02-12T04:25:49.454Z,9.278282
2023-02-12T04:26:49.409Z,9.278187
2023-02-12T04:27:49.405Z,9.278251
2023-02-12T04:28:50.371Z,9.278178
2023-02-12T04:29:49.371Z,9.278252
2023-02-12T04:30:49.460Z,9.278176
2023-02-12T04:31:49.506Z,9.278189
2023-02-12T04:32:49.315Z,9.278168
2023-02-12T04:33:49.302Z,9.278231
2023-02-12T04:34:49.380Z,9.278058
2023-02-12T04:35:49.812Z,9.278091
2023-02-12T04:36:49.409Z,9.278253
2023-02-12T04:37:49.223Z,9.278236
2023-02-12T04:38:49.212Z,9.278193
2023-02-12T04:39:49.309Z,9.278266
2023-02-12T04:40:49.229Z,9.278316
2023-02-12T04:41:49.185Z,9.278214
2023-02-12T04:42:49.192Z,9.278170
2023-02-12T04:43:49.150Z,9.278051
2023-02-12T04:44:49.105Z,9.278075
2023-02-12T04:45:49.131Z,9.278110
2023-02-12T04:46:49.072Z,9.278154
2023-02-12T04:47:49.044Z,9.278139
2023-02-12T04:48:49.134Z,9.278311
2023-02-12T04:49:49.108Z,9.278168
2023-02-12T04:50:49.016Z,9.278167
2023-02-12T04:51:49.033Z,9.278242
2023-02-12T04:52:49.113Z,9.278315
2023-02-12T04:53:48.974Z,9.278232
2023-02-12T04:54:48.962Z,9.278215
2023-02-12T04:55:48.975Z,9.278188
2023-02-12T04:56:48.892Z,9.278174
2023-02-12T04:57:48.904Z,9.278197
2023-02-12T04:58:48.888Z,9.278149
2023-02-12T04:59:48.965Z,9.278112
2023-02-12T05:00:48.852Z,9.278129
2023-02-12T05:01:48.972Z,9.278159
2023-02-12T05:02:48.929Z,9.278179
2023-02-12T05:03:48.901Z,9.278261
2023-02-12T05:04:48.818Z,9.278172
2023-02-12T05:05:48.880Z,9.278262
2023-02-12T05:06:48.895Z,9.278180
2023-02-12T05:07:48.707Z,9.278026
2023-02-12T05:08:48.687Z,9.278194
2023-02-12T05:09:48.705Z,9.278234
2023-02-12T05:10:48.643Z,9.278204
2023-02-12T05:11:48.813Z,9.278236
2023-02-12T05:12:48.621Z,9.278193
2023-02-12T05:13:48.590Z,9.278167
2023-02-12T05:14:48.610Z,9.278172
2023-02-12T05:15:48.572Z,9.278186
2023-02-12T05:16:48.593Z,9.278329
2023-02-12T05:17:48.528Z,9.278389
2023-02-12T05:18:48.515Z,9.278429
2023-02-12T05:19:48.500Z,9.278300
2023-02-12T05:20:48.497Z,9.278185
2023-02-12T05:21:48.504Z,9.278267
2023-02-12T05:22:48.458Z,9.278234
2023-02-12T05:23:48.477Z,9.278166
2023-02-12T05:24:48.444Z,9.278137
2023-02-12T05:25:48.402Z,9.278157
2023-02-12T05:26:48.392Z,9.278196
2023-02-12T05:27:48.361Z,9.278355
2023-02-12T05:28:48.428Z,9.278312
2023-02-12T05:29:48.404Z,9.278253
2023-02-12T05:30:48.394Z,9.278238
2023-02-12T05:31:48.388Z,9.278106
2023-02-12T05:32:48.273Z,9.278219
2023-02-12T05:33:48.261Z,9.278246
2023-02-12T05:34:48.225Z,9.278314
2023-02-12T05:35:48.236Z,9.278296
2023-02-12T05:36:48.292Z,9.278223
2023-02-12T05:37:48.203Z,9.278408
2023-02-12T05:38:48.163Z,9.278420
2023-02-12T05:39:48.153Z,9.278625
2023-02-12T05:40:48.124Z,9.278568
2023-02-12T05:41:48.163Z,9.278358
2023-02-12T05:42:48.133Z,9.278523
2023-02-12T05:43:49.760Z,9.278393
2023-02-12T05:44:49.062Z,9.278409
2023-02-12T05:45:48.046Z,9.278123
2023-02-12T05:46:48.110Z,9.278258
2023-02-12T05:47:48.015Z,9.278536
2023-02-12T05:48:48.022Z,9.278475
2023-02-12T05:49:47.975Z,9.278185
2023-02-12T05:50:47.973Z,9.278368
2023-02-12T05:51:47.972Z,9.278321
2023-02-12T05:52:47.952Z,9.278417
2023-02-12T05:53:47.901Z,9.278440
2023-02-12T05:54:47.904Z,9.278600
2023-02-12T05:55:47.867Z,9.278367
2023-02-12T05:56:47.898Z,9.278417
2023-02-12T05:57:47.850Z,9.278405
2023-02-12T05:58:47.828Z,9.278403
2023-02-12T05:59:47.816Z,9.278440
2023-02-12T06:00:47.876Z,9.278508
2023-02-12T06:01:47.798Z,9.278534
2023-02-12T06:02:47.755Z,9.278481
2023-02-12T06:03:47.785Z,9.278466
2023-02-12T06:04:48.729Z,9.278511
2023-02-12T06:05:48.692Z,9.278500
2023-02-12T06:06:47.719Z,9.278487
2023-02-12T06:07:47.680Z,9.278442
2023-02-12T06:08:47.649Z,9.278399
2023-02-12T06:09:47.637Z,9.278404
2023-02-12T06:10:47.610Z,9.278399
2023-02-12T06:11:47.653Z,9.278368
2023-02-12T06:12:47.598Z,9.278331
2023-02-12T06:13:47.560Z,9.278349
2023-02-12T06:14:47.565Z,9.278349
2023-02-12T06:15:47.545Z,9.278343
2023-02-12T06:16:47.542Z,9.278364
2023-02-12T06:17:47.483Z,9.278323
2023-02-12T06:18:47.485Z,9.278242
2023-02-12T06:19:47.464Z,9.278368
2023-02-12T06:20:47.449Z,9.278319
2023-02-12T06:21:47.531Z,9.278279
2023-02-12T06:22:47.426Z,9.278239
2023-02-12T06:23:47.412Z,9.278259
2023-02-12T06:24:47.370Z,9.278445
2023-02-12T06:25:47.389Z,9.278358
2023-02-12T06:26:47.406Z,9.278373
2023-02-12T06:27:47.317Z,9.278294
2023-02-12T06:28:47.304Z,9.278437
2023-02-12T06:29:47.320Z,9.278385
2023-02-12T06:30:47.432Z,9.278405
2023-02-12T06:31:47.469Z,9.278342
2023-02-12T06:32:47.229Z,9.278451
2023-02-12T06:33:47.222Z,9.278174
2023-02-12T06:34:47.197Z,9.278247
2023-02-12T06:35:47.196Z,9.278305
2023-02-12T06:36:47.205Z,9.278306
2023-02-12T06:37:47.142Z,9.278108
2023-02-12T06:38:47.130Z,9.278298
2023-02-12T06:39:47.101Z,9.278332
2023-02-12T06:40:47.088Z,9.278408
2023-02-12T06:41:47.104Z,9.278285
2023-02-12T06:42:47.056Z,9.278260
2023-02-12T06:43:47.047Z,9.278417
2023-02-12T06:44:47.020Z,9.278346
2023-02-12T06:45:47.004Z,9.278456
2023-02-12T06:46:47.122Z,9.278411
2023-02-12T06:47:46.977Z,9.278371
2023-02-12T06:48:46.961Z,9.278398
2023-02-12T06:49:46.956Z,9.278315
2023-02-12T06:50:47.948Z,9.278157
2023-02-12T06:51:46.968Z,9.278160
2023-02-12T06:52:46.901Z,9.278522
2023-02-12T06:53:46.870Z,9.278522
2023-02-12T06:54:46.880Z,9.278638
2023-02-12T06:55:46.823Z,9.278469
2023-02-12T06:56:46.810Z,9.278310
2023-02-12T06:57:46.833Z,9.278108
2023-02-12T06:58:46.775Z,9.278799
2023-02-12T06:59:46.757Z,9.277789
2023-02-12T07:00:46.770Z,9.277740
2023-02-12T07:01:46.741Z,9.278169
2023-02-12T07:02:46.733Z,9.278092
2023-02-12T07:03:46.722Z,9.277795
2023-02-12T07:04:46.673Z,9.277841
2023-02-12T07:05:46.661Z,9.277905
2023-02-12T07:06:46.645Z,9.278138
2023-02-12T07:07:46.656Z,9.278074
2023-02-12T07:08:46.638Z,9.278179
2023-02-12T07:09:46.587Z,9.278476
2023-02-12T07:10:46.614Z,9.278605
2023-02-12T07:11:46.557Z,9.278460
2023-02-12T07:12:46.552Z,9.278659
2023-02-12T07:13:46.518Z,9.278372
2023-02-12T07:14:46.491Z,9.278178
2023-02-12T07:15:46.473Z,9.278380
2023-02-12T07:16:46.585Z,9.278387
2023-02-12T07:17:46.477Z,9.278275
2023-02-12T07:18:46.459Z,9.278171
2023-02-12T07:19:46.400Z,9.278260
2023-02-12T07:20:46.436Z,9.278228
2023-02-12T07:21:46.380Z,9.278191
2023-02-12T07:22:46.392Z,9.278140
2023-02-12T07:23:47.933Z,9.278337
2023-02-12T07:24:46.330Z,9.278435
2023-02-12T07:25:46.292Z,9.278573
2023-02-12T07:26:46.328Z,9.277998
2023-02-12T07:27:46.295Z,9.278240
2023-02-12T07:28:46.263Z,9.278754
2023-02-12T07:29:46.289Z,9.278695
2023-02-12T07:30:46.244Z,9.278462
2023-02-12T07:31:46.245Z,9.278848
2023-02-12T07:32:46.242Z,9.278550
2023-02-12T07:33:46.273Z,9.278433
2023-02-12T07:34:46.144Z,9.278894
2023-02-12T07:35:46.124Z,9.278760
2023-02-12T07:36:46.118Z,9.278039
2023-02-12T07:37:46.123Z,9.278401
2023-02-12T07:38:46.079Z,9.278283
2023-02-12T07:39:46.060Z,9.278182
2023-02-12T07:40:46.041Z,9.278240
2023-02-12T07:41:46.077Z,9.278039
2023-02-12T07:42:46.029Z,9.278119
2023-02-12T07:43:46.010Z,9.278175
2023-02-12T07:44:45.972Z,9.278304
2023-02-12T07:45:46.000Z,9.278346
2023-02-12T07:46:48.349Z,9.278206
2023-02-12T07:47:46.947Z,9.278174
2023-02-12T07:48:45.974Z,9.278231
2023-02-12T07:49:45.888Z,9.278262
2023-02-12T07:50:45.879Z,9.278271
2023-02-12T07:51:45.851Z,9.278107
2023-02-12T07:52:45.881Z,9.278283
2023-02-12T07:53:45.818Z,9.278328
2023-02-12T07:54:45.808Z,9.278217
2023-02-12T07:55:45.853Z,9.278088
2023-02-12T07:56:45.768Z,9.278265
2023-02-12T07:57:45.777Z,9.278138
2023-02-12T07:58:45.749Z,9.278132
2023-02-12T07:59:45.740Z,9.278205
2023-02-12T08:00:45.692Z,9.278265
2023-02-12T08:01:45.722Z,9.278119
2023-02-12T08:02:45.739Z,9.277931
2023-02-12T08:03:45.680Z,9.277731
2023-02-12T08:04:45.705Z,9.277763
2023-02-12T08:05:45.656Z,9.277792
2023-02-12T08:06:45.601Z,9.277927
2023-02-12T08:07:45.679Z,9.277859
2023-02-12T08:08:45.591Z,9.277580
2023-02-12T08:09:45.552Z,9.277172
2023-02-12T08:10:45.545Z,9.277356
2023-02-12T08:11:45.522Z,9.277817
2023-02-12T08:12:45.525Z,9.277689
2023-02-12T08:13:45.504Z,9.277628
2023-02-12T08:14:45.475Z,9.277586
2023-02-12T08:15:45.448Z,9.277628
2023-02-12T08:16:45.468Z,9.277909
2023-02-12T08:17:46.467Z,9.278524
2023-02-12T08:18:45.428Z,9.279004
2023-02-12T08:19:45.425Z,9.278384
2023-02-12T08:20:45.360Z,9.278248
2023-02-12T08:21:45.341Z,9.278074
2023-02-12T08:23:11.217Z,9.278176
2023-02-12T08:23:45.315Z,9.278176
2023-02-12T08:24:45.332Z,9.278176
2023-02-12T08:25:45.276Z,9.278176
2023-02-12T08:26:45.439Z,9.278176
2023-02-12T08:27:45.238Z,9.278176
2023-02-12T08:28:45.301Z,9.278088
2023-02-12T08:29:45.209Z,9.278230
2023-02-12T08:30:45.257Z,9.278310
2023-02-12T08:31:45.236Z,9.278238
2023-02-12T08:32:45.145Z,9.278345
2023-02-12T08:33:45.175Z,9.278292
2023-02-12T08:34:45.177Z,9.278267
2023-02-12T08:35:45.091Z,9.278316
2023-02-12T08:36:45.073Z,9.278334
2023-02-12T08:37:45.069Z,9.278419
2023-02-12T08:38:45.079Z,9.278257
2023-02-12T08:39:45.029Z,9.278363
2023-02-12T08:40:45.014Z,9.278366
2023-02-12T08:41:45.003Z,9.278345
2023-02-12T08:42:44.981Z,9.278351
2023-02-12T08:43:44.990Z,9.278352
2023-02-12T08:44:44.929Z,9.278260
2023-02-12T08:45:44.927Z,9.278227
2023-02-12T08:46:44.909Z,9.278285
2023-02-12T08:47:44.916Z,9.278329
2023-02-12T08:48:44.882Z,9.278553
2023-02-12T08:49:44.861Z,9.278280
2023-02-12T08:50:44.889Z,9.277916
2023-02-12T08:51:44.797Z,9.277879
2023-02-12T08:52:44.794Z,9.278077
2023-02-12T08:53:44.801Z,9.278343
2023-02-12T08:54:44.751Z,9.278391
2023-02-12T08:55:44.728Z,9.278632
2023-02-12T08:56:44.715Z,9.278440
2023-02-12T08:57:44.694Z,9.278387
2023-02-12T08:58:44.766Z,9.278373
2023-02-12T08:59:44.665Z,9.278272
2023-02-12T09:00:44.648Z,9.278299
2023-02-12T09:01:44.647Z,9.278275
2023-02-12T09:02:44.727Z,9.278405
2023-02-12T09:03:44.634Z,9.278413
2023-02-12T09:04:44.589Z,9.278312
2023-02-12T09:05:44.570Z,9.278237
2023-02-12T09:06:44.543Z,9.278346
2023-02-12T09:07:44.540Z,9.278390
2023-02-12T09:08:44.562Z,9.278310
2023-02-12T09:09:44.499Z,9.278421
2023-02-12T09:10:44.489Z,9.278382
2023-02-12T09:11:44.464Z,9.278303
2023-02-12T09:12:44.445Z,9.278332
2023-02-12T09:13:44.450Z,9.278334
2023-02-12T09:14:44.446Z,9.278407
2023-02-12T09:15:45.059Z,9.278361
2023-02-12T09:16:45.500Z,9.278333
2023-02-12T09:17:44.359Z,9.278246
2023-02-12T09:18:44.363Z,9.278193
2023-02-12T09:19:44.319Z,9.278168
2023-02-12T09:20:44.307Z,9.278226
2023-02-12T09:21:44.302Z,9.278264
2023-02-12T09:22:44.275Z,9.278220
2023-02-12T09:23:44.289Z,9.278294
2023-02-12T09:24:44.247Z,9.278490
2023-02-12T09:25:44.228Z,9.278404
2023-02-12T09:26:44.205Z,9.278232
2023-02-12T09:27:44.210Z,9.278306
2023-02-12T09:28:44.206Z,9.278110
2023-02-12T09:29:44.147Z,9.278239
2023-02-12T09:30:44.234Z,9.278422
2023-02-12T09:31:44.253Z,9.278348
2023-02-12T09:32:44.096Z,9.278264
2023-02-12T09:33:44.113Z,9.278165
2023-02-12T09:34:44.058Z,9.278325
2023-02-12T09:35:44.041Z,9.278236
2023-02-12T09:36:44.032Z,9.278296
2023-02-12T09:37:44.002Z,9.278272
2023-02-12T09:38:44.036Z,9.278246
2023-02-12T09:39:43.999Z,9.278236
2023-02-12T09:40:44.000Z,9.278196
2023-02-12T09:41:43.953Z,9.278285
2023-02-12T09:42:43.920Z,9.278287
2023-02-12T09:43:43.962Z,9.278269
2023-02-12T09:44:43.885Z,9.278280
2023-02-12T09:45:43.926Z,9.278365
2023-02-12T09:46:43.946Z,9.278295
2023-02-12T09:47:43.864Z,9.278297
2023-02-12T09:48:43.865Z,9.278289
2023-02-12T09:49:43.800Z,9.278261
2023-02-12T09:50:43.809Z,9.278294
2023-02-12T09:51:43.777Z,9.278284
2023-02-12T09:52:43.750Z,9.278293
2023-02-12T09:53:43.773Z,9.278310
2023-02-12T09:54:43.714Z,9.278317
2023-02-12T09:55:43.697Z,9.278325
2023-02-12T09:56:43.676Z,9.278318
2023-02-12T09:57:43.664Z,9.278325
2023-02-12T09:58:43.696Z,9.278315
2023-02-12T09:59:43.620Z,9.278321
2023-02-12T10:00:43.641Z,9.278305
2023-02-12T10:01:43.664Z,9.278299
2023-02-12T10:02:43.592Z,9.278253
2023-02-12T10:03:43.594Z,9.278295
2023-02-12T10:04:58.758Z,9.278208
2023-02-12T10:05:45.537Z,9.278211
2023-02-12T10:06:43.526Z,9.278173
2023-02-12T10:07:43.510Z,9.278354
2023-02-12T10:08:43.526Z,9.278301
2023-02-12T10:09:43.458Z,9.278172
2023-02-12T10:10:43.472Z,9.278262
2023-02-12T10:11:43.426Z,9.278173
2023-02-12T10:12:43.453Z,9.278376
2023-02-12T10:13:43.428Z,9.278328
2023-02-12T10:14:43.374Z,9.278329
2023-02-12T10:15:43.390Z,9.278230
2023-02-12T10:16:43.404Z,9.278229
2023-02-12T10:17:43.346Z,9.277998
2023-02-12T10:18:43.340Z,9.278257
2023-02-12T10:19:43.295Z,9.278305
2023-02-12T10:20:43.310Z,9.278324
2023-02-12T10:21:43.265Z,9.278089
2023-02-12T10:22:56.051Z,9.278386
2023-02-12T10:23:45.267Z,9.278319
2023-02-12T10:24:43.204Z,9.278354
2023-02-12T10:25:43.189Z,9.278222
2023-02-12T10:26:43.187Z,9.277988
2023-02-12T10:27:43.165Z,9.277914
2023-02-12T10:28:43.230Z,9.278153
2023-02-12T10:29:43.122Z,9.278189
2023-02-12T10:30:43.124Z,9.278105
2023-02-12T10:31:43.198Z,9.278049
2023-02-12T10:32:43.103Z,9.278151
2023-02-12T10:33:43.142Z,9.278234
2023-02-12T10:34:43.049Z,9.278257
2023-02-12T10:35:43.016Z,9.278337
2023-02-12T10:36:43.013Z,9.278215
2023-02-12T10:37:42.979Z,9.278311
2023-02-12T10:38:43.030Z,9.278343
2023-02-12T10:39:42.995Z,9.278248
2023-02-12T10:40:42.994Z,9.278423
2023-02-12T10:41:42.906Z,9.278510
2023-02-12T10:42:42.887Z,9.278483
2023-02-12T10:43:42.911Z,9.278307
2023-02-12T10:44:42.875Z,9.278312
2023-02-12T10:45:42.858Z,9.278372
2023-02-12T10:46:42.892Z,9.278547
2023-02-12T10:47:42.820Z,9.278100
2023-02-12T10:48:42.794Z,9.277938
2023-02-12T10:49:42.805Z,9.278347
2023-02-12T10:50:42.747Z,9.278243
2023-02-12T10:51:42.739Z,9.278027
2023-02-12T10:52:42.735Z,9.278069
2023-02-12T10:53:42.708Z,9.278036
2023-02-12T10:54:42.771Z,9.278024
2023-02-12T10:55:42.668Z,9.277967
2023-02-12T10:56:42.652Z,9.278083
2023-02-12T10:57:42.627Z,9.278081
2023-02-12T10:58:42.617Z,9.277980
2023-02-12T10:59:42.670Z,9.277882
2023-02-12T11:00:42.595Z,9.277874
2023-02-12T11:01:42.610Z,9.278194
2023-02-12T11:02:42.550Z,9.278265
2023-02-12T11:03:42.530Z,9.278237
2023-02-12T11:04:42.575Z,9.278282
2023-02-12T11:05:42.506Z,9.278213
2023-02-12T11:06:42.485Z,9.278270
2023-02-12T11:07:42.465Z,9.278262
2023-02-12T11:08:42.469Z,9.278213
2023-02-12T11:09:42.453Z,9.278179
2023-02-12T11:10:42.416Z,9.278257
2023-02-12T11:11:42.392Z,9.278296
2023-02-12T11:12:42.369Z,9.278251
2023-02-12T11:13:42.353Z,9.278303
2023-02-12T11:14:42.381Z,9.278259
2023-02-12T11:15:42.356Z,9.278047
2023-02-12T11:16:42.313Z,9.278055
2023-02-12T11:17:42.306Z,9.278274
2023-02-12T11:18:42.276Z,9.278232
2023-02-12T11:19:42.291Z,9.278127
2023-02-12T11:20:42.238Z,9.277996
2023-02-12T11:21:42.248Z,9.278041
2023-02-12T11:22:42.208Z,9.277835
2023-02-12T11:23:42.198Z,9.278140
2023-02-12T11:24:42.203Z,9.278277
2023-02-12T11:25:42.184Z,9.278258
2023-02-12T11:26:42.163Z,9.278325
2023-02-12T11:27:42.118Z,9.278322
2023-02-12T11:28:42.221Z,9.278333
2023-02-12T11:29:42.136Z,9.278284
2023-02-12T11:30:42.104Z,9.278384
2023-02-12T11:31:42.209Z,9.278129
2023-02-12T11:32:42.048Z,9.278030
2023-02-12T11:33:43.037Z,9.278019
2023-02-12T11:34:42.028Z,9.278332
2023-02-12T11:35:41.980Z,9.278216
2023-02-12T11:36:41.980Z,9.277912
2023-02-12T11:37:41.953Z,9.278127
2023-02-12T11:38:41.935Z,9.278047
2023-02-12T11:39:41.945Z,9.278047
2023-02-12T11:40:41.909Z,9.278177
2023-02-12T11:41:41.908Z,9.278113
2023-02-12T11:42:41.867Z,9.278116
2023-02-12T11:43:41.892Z,9.278337
2023-02-12T11:44:41.879Z,9.278225